sensor_id;sensor_type;location;lat;lon;timestamp;pressure;altitude;pressure_sealevel;temperature;humidity
55757;BME280;41676;44.610;44.078;2023-04-07T00:02:43;99967.75;;;5.90;100.00
55757;BME280;41676;44.610;44.078;2023-04-07T00:07:44;99964.06;;;5.73;100.00
55757;BME280;41676;44.610;44.078;2023-04-07T00:12:45;99879.09;;;4.96;100.00
55757;BME280;41676;44.610;44.078;2023-04-07T00:17:46;99979.81;;;5.55;100.00
55757;BME280;41676;44.610;44.078;2023-04-07T00:22:47;99957.09;;;5.54;100.00
55757;BME280;41676;44.610;44.078;2023-04-07T00:27:48;99965.59;;;5.76;100.00
55757;BME280;41676;44.610;44.078;2023-04-07T00:32:49;99804.56;;;4.96;100.00
55757;BME280;41676;44.610;44.078;2023-04-07T00:37:51;99975.84;;;6.06;100.00
55757;BME280;41676;44.610;44.078;2023-04-07T00:42:51;99886.03;;;5.62;100.00
55757;BME280;41676;44.610;44.078;2023-04-07T00:47:52;99896.13;;;5.67;100.00
55757;BME280;41676;44.610;44.078;2023-04-07T00:52:53;99826.50;;;5.24;100.00
55757;BME280;41676;44.610;44.078;2023-04-07T00:57:56;99974.75;;;6.27;100.00
55757;BME280;41676;44.610;44.078;2023-04-07T01:03:00;99956.16;;;6.28;100.00
55757;BME280;41676;44.610;44.078;2023-04-07T01:08:20;99962.88;;;6.40;100.00
55757;BME280;41676;44.610;44.078;2023-04-07T01:13:30;99874.22;;;5.94;100.00
55757;BME280;41676;44.610;44.078;2023-04-07T01:18:34;99957.28;;;6.44;100.00
55757;BME280;41676;44.610;44.078;2023-04-07T01:24:04;99965.03;;;6.63;100.00
55757;BME280;41676;44.610;44.078;2023-04-07T01:29:36;99964.53;;;6.59;100.00
55757;BME280;41676;44.610;44.078;2023-04-07T01:34:37;99959.06;;;6.43;100.00
55757;BME280;41676;44.610;44.078;2023-04-07T01:39:38;99965.44;;;6.32;100.00
55757;BME280;41676;44.610;44.078;2023-04-07T01:44:40;99972.28;;;6.25;100.00
55757;BME280;41676;44.610;44.078;2023-04-07T01:49:42;99970.91;;;6.21;100.00
55757;BME280;41676;44.610;44.078;2023-04-07T01:54:44;99978.59;;;6.14;100.00
55757;BME280;41676;44.610;44.078;2023-04-07T01:59:46;99910.38;;;5.74;100.00
55757;BME280;41676;44.610;44.078;2023-04-07T02:04:59;99974.94;;;6.25;100.00
55757;BME280;41676;44.610;44.078;2023-04-07T02:10:04;99967.44;;;6.21;100.00
55757;BME280;41676;44.610;44.078;2023-04-07T02:15:08;99963.91;;;6.30;100.00
55757;BME280;41676;44.610;44.078;2023-04-07T02:20:10;99969.72;;;6.33;100.00
55757;BME280;41676;44.610;44.078;2023-04-07T02:25:26;99862.03;;;5.83;100.00
55757;BME280;41676;44.610;44.078;2023-04-07T02:30:27;99971.84;;;6.48;100.00
55757;BME280;41676;44.610;44.078;2023-04-07T02:35:28;99975.06;;;6.42;100.00
55757;BME280;41676;44.610;44.078;2023-04-07T02:40:28;99975.81;;;6.34;100.00
55757;BME280;41676;44.610;44.078;2023-04-07T02:45:30;99970.94;;;6.39;100.00
55757;BME280;41676;44.610;44.078;2023-04-07T02:50:30;99982.00;;;6.43;100.00
55757;BME280;41676;44.610;44.078;2023-04-07T02:55:31;99982.38;;;6.48;100.00
55757;BME280;41676;44.610;44.078;2023-04-07T03:00:33;99985.13;;;6.56;100.00
55757;BME280;41676;44.610;44.078;2023-04-07T03:05:34;99961.81;;;6.51;100.00
55757;BME280;41676;44.610;44.078;2023-04-07T03:10:34;99976.47;;;6.90;100.00
55757;BME280;41676;44.610;44.078;2023-04-07T03:15:35;99936.44;;;6.94;100.00
55757;BME280;41676;44.610;44.078;2023-04-07T03:20:36;99915.25;;;7.12;100.00
55757;BME280;41676;44.610;44.078;2023-04-07T03:25:37;99979.34;;;7.83;100.00
55757;BME280;41676;44.610;44.078;2023-04-07T03:30:38;99971.06;;;8.20;99.63
55757;BME280;41676;44.610;44.078;2023-04-07T03:35:39;99993.31;;;8.76;98.33
55757;BME280;41676;44.610;44.078;2023-04-07T03:40:40;99976.94;;;8.81;97.76
55757;BME280;41676;44.610;44.078;2023-04-07T03:45:41;99991.09;;;9.45;97.22
55757;BME280;41676;44.610;44.078;2023-04-07T03:50:42;99915.78;;;9.23;96.10
55757;BME280;41676;44.610;44.078;2023-04-07T03:55:43;100009.91;;;9.75;95.58
55757;BME280;41676;44.610;44.078;2023-04-07T04:00:44;100013.78;;;9.64;94.76
55757;BME280;41676;44.610;44.078;2023-04-07T04:05:45;99919.50;;;8.81;94.72
55757;BME280;41676;44.610;44.078;2023-04-07T04:10:46;100019.81;;;9.25;95.04
55757;BME280;41676;44.610;44.078;2023-04-07T04:15:47;100018.00;;;9.26;94.99
55757;BME280;41676;44.610;44.078;2023-04-07T04:20:47;100023.63;;;9.31;95.00
55757;BME280;41676;44.610;44.078;2023-04-07T04:25:48;99970.94;;;9.20;94.82
55757;BME280;41676;44.610;44.078;2023-04-07T04:30:49;99937.31;;;9.12;94.25
55757;BME280;41676;44.610;44.078;2023-04-07T04:35:50;99994.25;;;9.49;94.48
55757;BME280;41676;44.610;44.078;2023-04-07T04:40:51;99998.75;;;9.48;94.03
55757;BME280;41676;44.610;44.078;2023-04-07T04:45:52;100028.06;;;9.47;93.81
55757;BME280;41676;44.610;44.078;2023-04-07T04:50:53;100028.75;;;9.41;94.12
55757;BME280;41676;44.610;44.078;2023-04-07T04:55:54;100026.09;;;9.49;94.19
55757;BME280;41676;44.610;44.078;2023-04-07T05:07:17;100001.34;;;9.56;93.19
55757;BME280;41676;44.610;44.078;2023-04-07T05:12:18;99952.41;;;9.20;93.41
55757;BME280;41676;44.610;44.078;2023-04-07T05:17:19;100032.63;;;9.77;93.59
55757;BME280;41676;44.610;44.078;2023-04-07T05:22:20;99951.63;;;9.58;93.58
55757;BME280;41676;44.610;44.078;2023-04-07T05:27:20;99962.69;;;10.10;92.30
55757;BME280;41676;44.610;44.078;2023-04-07T05:32:21;100026.66;;;11.23;91.37
55757;BME280;41676;44.610;44.078;2023-04-07T05:37:22;100002.88;;;11.74;90.04
55757;BME280;41676;44.610;44.078;2023-04-07T05:42:23;100008.97;;;12.34;89.46
55757;BME280;41676;44.610;44.078;2023-04-07T05:47:23;100031.03;;;12.64;87.77
55757;BME280;41676;44.610;44.078;2023-04-07T05:52:24;100035.41;;;12.72;87.40
55757;BME280;41676;44.610;44.078;2023-04-07T05:57:25;100022.31;;;12.55;87.35
55757;BME280;41676;44.610;44.078;2023-04-07T06:02:27;100043.91;;;12.82;86.65
55757;BME280;41676;44.610;44.078;2023-04-07T06:07:28;100026.56;;;13.14;86.34
55757;BME280;41676;44.610;44.078;2023-04-07T06:12:29;99936.56;;;12.95;85.18
55757;BME280;41676;44.610;44.078;2023-04-07T06:17:30;100042.59;;;14.05;84.19
55757;BME280;41676;44.610;44.078;2023-04-07T06:22:30;100038.03;;;14.47;83.28
55757;BME280;41676;44.610;44.078;2023-04-07T06:27:31;100031.69;;;14.48;82.25
55757;BME280;41676;44.610;44.078;2023-04-07T06:32:32;100008.63;;;14.41;81.72
55757;BME280;41676;44.610;44.078;2023-04-07T06:37:33;100024.94;;;14.59;80.58
55757;BME280;41676;44.610;44.078;2023-04-07T06:42:34;100034.88;;;14.72;80.31
55757;BME280;41676;44.610;44.078;2023-04-07T06:47:35;99960.75;;;14.39;80.02
55757;BME280;41676;44.610;44.078;2023-04-07T06:52:35;100006.53;;;15.11;79.13
55757;BME280;41676;44.610;44.078;2023-04-07T06:57:36;100039.94;;;16.13;76.60
55757;BME280;41676;44.610;44.078;2023-04-07T07:02:37;100025.66;;;16.26;71.55
55757;BME280;41676;44.610;44.078;2023-04-07T07:07:38;100037.63;;;16.23;69.93
55757;BME280;41676;44.610;44.078;2023-04-07T07:12:40;100029.81;;;16.22;69.08
55757;BME280;41676;44.610;44.078;2023-04-07T07:17:41;99964.66;;;15.69;68.65
55757;BME280;41676;44.610;44.078;2023-04-07T07:22:42;100010.56;;;15.86;68.27
55757;BME280;41676;44.610;44.078;2023-04-07T07:27:42;99990.56;;;15.89;68.78
55757;BME280;41676;44.610;44.078;2023-04-07T07:32:43;100024.19;;;16.30;68.83
55757;BME280;41676;44.610;44.078;2023-04-07T07:37:44;100003.84;;;16.22;68.36
55757;BME280;41676;44.610;44.078;2023-04-07T07:42:45;100028.56;;;16.62;68.51
55757;BME280;41676;44.610;44.078;2023-04-07T07:47:46;100024.59;;;16.78;67.47
55757;BME280;41676;44.610;44.078;2023-04-07T07:52:47;99959.56;;;16.44;66.93
55757;BME280;41676;44.610;44.078;2023-04-07T07:57:48;99953.88;;;16.34;67.09
55757;BME280;41676;44.610;44.078;2023-04-07T08:02:49;99964.78;;;16.39;66.87
55757;BME280;41676;44.610;44.078;2023-04-07T08:07:51;100025.63;;;16.77;66.61
55757;BME280;41676;44.610;44.078;2023-04-07T08:12:51;99999.00;;;16.69;67.16
55757;BME280;41676;44.610;44.078;2023-04-07T08:17:52;100029.31;;;17.08;66.15
55757;BME280;41676;44.610;44.078;2023-04-07T08:22:53;99967.16;;;16.86;65.47
55757;BME280;41676;44.610;44.078;2023-04-07T08:27:54;100017.47;;;17.41;65.21
55757;BME280;41676;44.610;44.078;2023-04-07T08:32:54;100021.72;;;17.73;64.19
55757;BME280;41676;44.610;44.078;2023-04-07T08:37:56;100009.06;;;17.99;63.86
55757;BME280;41676;44.610;44.078;2023-04-07T08:42:58;100005.31;;;18.18;62.34
55757;BME280;41676;44.610;44.078;2023-04-07T08:48:03;99955.00;;;18.07;61.22
55757;BME280;41676;44.610;44.078;2023-04-07T08:53:08;99989.78;;;18.81;61.78
55757;BME280;41676;44.610;44.078;2023-04-07T08:58:13;99994.69;;;18.54;60.46
55757;BME280;41676;44.610;44.078;2023-04-07T09:03:15;99992.94;;;18.47;60.89
55757;BME280;41676;44.610;44.078;2023-04-07T09:08:17;99923.06;;;17.99;59.88
55757;BME280;41676;44.610;44.078;2023-04-07T09:13:18;99904.03;;;17.82;60.72
55757;BME280;41676;44.610;44.078;2023-04-07T09:18:19;99957.91;;;18.36;60.35
55757;BME280;41676;44.610;44.078;2023-04-07T09:23:33;99979.19;;;19.09;58.27
55757;BME280;41676;44.610;44.078;2023-04-07T09:28:40;99970.31;;;19.21;57.42
55757;BME280;41676;44.610;44.078;2023-04-07T09:33:41;99949.91;;;19.72;57.23
55757;BME280;41676;44.610;44.078;2023-04-07T09:38:43;99902.38;;;19.94;54.75
55757;BME280;41676;44.610;44.078;2023-04-07T09:43:45;99972.41;;;20.46;54.01
55757;BME280;41676;44.610;44.078;2023-04-07T09:48:46;99981.03;;;20.60;53.44
55757;BME280;41676;44.610;44.078;2023-04-07T09:53:50;99918.16;;;20.02;53.34
55757;BME280;41676;44.610;44.078;2023-04-07T09:58:51;99975.88;;;20.59;54.61
55757;BME280;41676;44.610;44.078;2023-04-07T10:03:53;99923.41;;;20.09;54.77
55757;BME280;41676;44.610;44.078;2023-04-07T10:08:55;99973.63;;;19.98;55.45
55757;BME280;41676;44.610;44.078;2023-04-07T10:13:56;99924.25;;;19.46;55.33
55757;BME280;41676;44.610;44.078;2023-04-07T10:18:57;99971.56;;;19.77;54.89
55757;BME280;41676;44.610;44.078;2023-04-07T10:29:20;99934.19;;;20.09;53.04
55757;BME280;41676;44.610;44.078;2023-04-07T10:40:26;99965.91;;;20.93;50.61
55757;BME280;41676;44.610;44.078;2023-04-07T10:51:10;99961.25;;;21.78;45.14
55757;BME280;41676;44.610;44.078;2023-04-07T10:56:13;99904.59;;;21.27;45.52
55757;BME280;41676;44.610;44.078;2023-04-07T11:01:15;99961.69;;;21.70;43.65
55757;BME280;41676;44.610;44.078;2023-04-07T11:06:16;99888.50;;;21.54;41.84
55757;BME280;41676;44.610;44.078;2023-04-07T11:11:38;99795.53;;;21.33;40.32
55757;BME280;41676;44.610;44.078;2023-04-07T11:16:41;99905.59;;;21.60;40.73
55757;BME280;41676;44.610;44.078;2023-04-07T11:21:42;99882.53;;;20.96;42.00
55757;BME280;41676;44.610;44.078;2023-04-07T11:26:43;99893.78;;;20.71;41.84
55757;BME280;41676;44.610;44.078;2023-04-07T11:31:46;99949.41;;;21.06;39.77
55757;BME280;41676;44.610;44.078;2023-04-07T11:36:47;99879.19;;;21.06;41.25
55757;BME280;41676;44.610;44.078;2023-04-07T11:41:49;99960.63;;;21.54;40.71
55757;BME280;41676;44.610;44.078;2023-04-07T11:46:54;99968.94;;;21.30;40.92
55757;BME280;41676;44.610;44.078;2023-04-07T11:52:05;99965.91;;;21.43;40.55
55757;BME280;41676;44.610;44.078;2023-04-07T11:57:09;99946.69;;;21.62;41.84
55757;BME280;41676;44.610;44.078;2023-04-07T12:02:30;99969.06;;;22.01;40.32
55757;BME280;41676;44.610;44.078;2023-04-07T12:07:31;99941.06;;;21.63;41.72
55757;BME280;41676;44.610;44.078;2023-04-07T12:12:32;99957.69;;;21.77;41.88
55757;BME280;41676;44.610;44.078;2023-04-07T12:17:33;99956.56;;;21.73;41.70
55757;BME280;41676;44.610;44.078;2023-04-07T12:22:34;99969.16;;;21.84;41.53
55757;BME280;41676;44.610;44.078;2023-04-07T12:27:34;99964.81;;;22.05;40.92
55757;BME280;41676;44.610;44.078;2023-04-07T12:32:35;99923.31;;;21.95;40.09
55757;BME280;41676;44.610;44.078;2023-04-07T12:37:37;99965.31;;;22.24;40.70
55757;BME280;41676;44.610;44.078;2023-04-07T12:42:38;99960.53;;;22.09;40.34
55757;BME280;41676;44.610;44.078;2023-04-07T12:47:39;99967.38;;;21.73;39.94
55757;BME280;41676;44.610;44.078;2023-04-07T12:52:40;99963.47;;;21.42;39.65
55757;BME280;41676;44.610;44.078;2023-04-07T12:57:40;99968.63;;;20.93;40.30
55757;BME280;41676;44.610;44.078;2023-04-07T13:02:42;99913.38;;;20.04;41.00
55757;BME280;41676;44.610;44.078;2023-04-07T13:07:43;99867.06;;;19.55;41.02
55757;BME280;41676;44.610;44.078;2023-04-07T13:12:44;99888.28;;;19.52;41.47
55757;BME280;41676;44.610;44.078;2023-04-07T13:17:45;99937.47;;;19.71;41.84
55757;BME280;41676;44.610;44.078;2023-04-07T13:22:47;99944.88;;;19.52;42.21
55757;BME280;41676;44.610;44.078;2023-04-07T13:27:47;99932.34;;;19.46;42.45
55757;BME280;41676;44.610;44.078;2023-04-07T13:32:48;99966.78;;;19.67;43.39
55757;BME280;41676;44.610;44.078;2023-04-07T13:37:49;99950.47;;;19.50;43.66
55757;BME280;41676;44.610;44.078;2023-04-07T13:42:50;99895.38;;;19.06;43.79
55757;BME280;41676;44.610;44.078;2023-04-07T13:47:51;99936.66;;;19.35;43.84
55757;BME280;41676;44.610;44.078;2023-04-07T13:52:52;99957.03;;;19.54;44.24
55757;BME280;41676;44.610;44.078;2023-04-07T13:57:53;99956.31;;;19.59;43.90
55757;BME280;41676;44.610;44.078;2023-04-07T14:02:54;99931.19;;;19.42;44.05
55757;BME280;41676;44.610;44.078;2023-04-07T14:07:55;99866.34;;;18.96;44.23
55757;BME280;41676;44.610;44.078;2023-04-07T14:12:56;99962.31;;;19.26;44.51
55757;BME280;41676;44.610;44.078;2023-04-07T14:17:57;99905.34;;;18.40;47.08
55757;BME280;41676;44.610;44.078;2023-04-07T14:22:58;99985.34;;;18.56;49.38
55757;BME280;41676;44.610;44.078;2023-04-07T14:27:58;99976.19;;;18.15;50.77
55757;BME280;41676;44.610;44.078;2023-04-07T14:32:59;99994.13;;;18.03;52.12
55757;BME280;41676;44.610;44.078;2023-04-07T14:38:01;99979.50;;;17.62;53.51
55757;BME280;41676;44.610;44.078;2023-04-07T14:43:02;100003.59;;;17.69;54.24
55757;BME280;41676;44.610;44.078;2023-04-07T14:48:03;99976.63;;;17.39;55.20
55757;BME280;41676;44.610;44.078;2023-04-07T14:53:05;100003.78;;;17.49;56.03
55757;BME280;41676;44.610;44.078;2023-04-07T14:58:06;99988.53;;;17.24;56.71
55757;BME280;41676;44.610;44.078;2023-04-07T15:03:07;99993.78;;;17.13;58.02
55757;BME280;41676;44.610;44.078;2023-04-07T15:08:08;99998.16;;;16.82;59.16
55757;BME280;41676;44.610;44.078;2023-04-07T15:13:09;100007.28;;;16.67;59.72
55757;BME280;41676;44.610;44.078;2023-04-07T15:18:10;100008.84;;;16.50;60.24
55757;BME280;41676;44.610;44.078;2023-04-07T15:23:10;99991.72;;;16.13;60.75
55757;BME280;41676;44.610;44.078;2023-04-07T15:28:14;100017.88;;;16.11;61.08
55757;BME280;41676;44.610;44.078;2023-04-07T15:33:14;100018.38;;;15.88;62.07
55757;BME280;41676;44.610;44.078;2023-04-07T15:38:15;99979.13;;;15.35;62.79
55757;BME280;41676;44.610;44.078;2023-04-07T15:43:16;100007.53;;;15.36;63.97
55757;BME280;41676;44.610;44.078;2023-04-07T15:48:17;100023.78;;;15.28;65.15
55757;BME280;41676;44.610;44.078;2023-04-07T15:53:17;100014.94;;;15.07;65.36
55757;BME280;41676;44.610;44.078;2023-04-07T15:58:18;99984.69;;;14.80;65.68
55757;BME280;41676;44.610;44.078;2023-04-07T16:03:19;100025.41;;;14.89;66.30
55757;BME280;41676;44.610;44.078;2023-04-07T16:08:20;100020.66;;;14.71;66.87
55757;BME280;41676;44.610;44.078;2023-04-07T16:13:21;99975.50;;;14.22;67.72
55757;BME280;41676;44.610;44.078;2023-04-07T16:18:22;100002.59;;;14.19;67.67
55757;BME280;41676;44.610;44.078;2023-04-07T16:23:23;100075.47;;;14.47;67.45
55757;BME280;41676;44.610;44.078;2023-04-07T16:28:23;100085.72;;;14.37;68.21
55757;BME280;41676;44.610;44.078;2023-04-07T16:33:24;100065.41;;;14.01;68.77
55757;BME280;41676;44.610;44.078;2023-04-07T16:38:27;100099.88;;;13.96;69.40
55757;BME280;41676;44.610;44.078;2023-04-07T16:43:28;100041.53;;;13.37;70.24
55757;BME280;41676;44.610;44.078;2023-04-07T16:48:29;100083.69;;;13.41;70.51
55757;BME280;41676;44.610;44.078;2023-04-07T16:53:30;100030.25;;;12.92;71.36
55757;BME280;41676;44.610;44.078;2023-04-07T16:58:31;99977.34;;;12.46;70.97
55757;BME280;41676;44.610;44.078;2023-04-07T17:03:31;100097.06;;;13.05;71.83
55757;BME280;41676;44.610;44.078;2023-04-07T17:08:33;100123.34;;;13.08;71.33
55757;BME280;41676;44.610;44.078;2023-04-07T17:13:34;100134.66;;;13.10;70.82
55757;BME280;41676;44.610;44.078;2023-04-07T17:18:35;100128.03;;;13.06;71.24
55757;BME280;41676;44.610;44.078;2023-04-07T17:23:36;100098.19;;;12.74;71.42
55757;BME280;41676;44.610;44.078;2023-04-07T17:28:37;99979.00;;;11.81;71.35
55757;BME280;41676;44.610;44.078;2023-04-07T17:33:38;100072.81;;;12.27;71.41
55757;BME280;41676;44.610;44.078;2023-04-07T17:38:39;100147.00;;;12.60;71.30
55757;BME280;41676;44.610;44.078;2023-04-07T17:43:39;100090.28;;;12.15;71.35
55757;BME280;41676;44.610;44.078;2023-04-07T17:48:40;100051.13;;;11.71;71.85
55757;BME280;41676;44.610;44.078;2023-04-07T17:53:44;100059.75;;;11.73;71.69
55757;BME280;41676;44.610;44.078;2023-04-07T17:58:47;100048.53;;;11.63;73.13
55757;BME280;41676;44.610;44.078;2023-04-07T18:03:48;100062.88;;;11.62;72.61
55757;BME280;41676;44.610;44.078;2023-04-07T18:08:49;100099.84;;;11.72;74.29
55757;BME280;41676;44.610;44.078;2023-04-07T18:13:50;100078.16;;;11.45;75.00
55757;BME280;41676;44.610;44.078;2023-04-07T18:18:51;100071.44;;;11.34;75.00
55757;BME280;41676;44.610;44.078;2023-04-07T18:23:52;100077.75;;;11.33;75.37
55757;BME280;41676;44.610;44.078;2023-04-07T18:28:52;100133.53;;;11.64;76.24
55757;BME280;41676;44.610;44.078;2023-04-07T18:33:53;100142.34;;;11.42;76.75
55757;BME280;41676;44.610;44.078;2023-04-07T18:38:54;100110.31;;;10.89;77.96
55757;BME280;41676;44.610;44.078;2023-04-07T18:43:55;100124.47;;;10.82;79.04
55757;BME280;41676;44.610;44.078;2023-04-07T18:48:56;100124.66;;;10.80;79.10
55757;BME280;41676;44.610;44.078;2023-04-07T18:53:57;100131.19;;;10.69;79.25
55757;BME280;41676;44.610;44.078;2023-04-07T18:58:58;100111.91;;;10.44;79.63
55757;BME280;41676;44.610;44.078;2023-04-07T19:03:59;100123.50;;;10.43;79.60
55757;BME280;41676;44.610;44.078;2023-04-07T19:09:00;100116.59;;;10.18;80.28
55757;BME280;41676;44.610;44.078;2023-04-07T19:14:03;100120.78;;;10.04;81.39
55757;BME280;41676;44.610;44.078;2023-04-07T19:19:05;100065.00;;;9.65;81.89
55757;BME280;41676;44.610;44.078;2023-04-07T19:24:06;100134.19;;;10.11;82.52
55757;BME280;41676;44.610;44.078;2023-04-07T19:29:07;100127.97;;;9.87;83.00
55757;BME280;41676;44.610;44.078;2023-04-07T19:34:10;99986.19;;;8.85;83.87
55757;BME280;41676;44.610;44.078;2023-04-07T19:39:10;100067.34;;;9.35;83.67
55757;BME280;41676;44.610;44.078;2023-04-07T19:44:11;99956.75;;;8.80;83.60
55757;BME280;41676;44.610;44.078;2023-04-07T19:49:12;100098.47;;;9.66;84.40
55757;BME280;41676;44.610;44.078;2023-04-07T19:54:13;100087.72;;;9.51;84.97
55757;BME280;41676;44.610;44.078;2023-04-07T19:59:14;100096.34;;;9.53;85.71
55757;BME280;41676;44.610;44.078;2023-04-07T20:04:15;100111.44;;;9.28;86.42
55757;BME280;41676;44.610;44.078;2023-04-07T20:09:16;100045.63;;;8.66;87.09
55757;BME280;41676;44.610;44.078;2023-04-07T20:14:16;100138.56;;;9.13;87.57
55757;BME280;41676;44.610;44.078;2023-04-07T20:19:17;100138.56;;;9.13;88.11
55757;BME280;41676;44.610;44.078;2023-04-07T20:24:18;100082.22;;;8.71;88.09
55757;BME280;41676;44.610;44.078;2023-04-07T20:29:19;100065.94;;;8.57;88.31
55757;BME280;41676;44.610;44.078;2023-04-07T20:34:20;100023.81;;;8.30;88.86
55757;BME280;41676;44.610;44.078;2023-04-07T20:39:21;100021.97;;;8.22;88.79
55757;BME280;41676;44.610;44.078;2023-04-07T20:44:22;100122.28;;;8.84;88.82
55757;BME280;41676;44.610;44.078;2023-04-07T20:49:23;100048.00;;;8.35;89.12
55757;BME280;41676;44.610;44.078;2023-04-07T20:54:23;100021.53;;;7.92;90.09
55757;BME280;41676;44.610;44.078;2023-04-07T20:59:25;100138.25;;;8.50;91.28
55757;BME280;41676;44.610;44.078;2023-04-07T21:04:26;100038.00;;;7.78;91.63
55757;BME280;41676;44.610;44.078;2023-04-07T21:09:27;100128.03;;;8.29;91.88
55757;BME280;41676;44.610;44.078;2023-04-07T21:14:27;100147.84;;;8.24;92.28
55757;BME280;41676;44.610;44.078;2023-04-07T21:19:28;100150.72;;;8.05;92.35
55757;BME280;41676;44.610;44.078;2023-04-07T21:24:29;100159.91;;;7.93;93.11
55757;BME280;41676;44.610;44.078;2023-04-07T21:29:31;100083.56;;;7.46;93.48
55757;BME280;41676;44.610;44.078;2023-04-07T21:34:32;100149.09;;;7.86;93.80
55757;BME280;41676;44.610;44.078;2023-04-07T21:39:33;100124.59;;;7.76;94.13
55757;BME280;41676;44.610;44.078;2023-04-07T21:44:34;100123.50;;;7.87;93.49
55757;BME280;41676;44.610;44.078;2023-04-07T21:49:35;100151.50;;;7.97;93.48
55757;BME280;41676;44.610;44.078;2023-04-07T21:54:38;100135.94;;;7.68;92.10
55757;BME280;41676;44.610;44.078;2023-04-07T21:59:39;100122.66;;;7.60;92.50
55757;BME280;41676;44.610;44.078;2023-04-07T22:04:39;100025.41;;;7.20;92.90
55757;BME280;41676;44.610;44.078;2023-04-07T22:09:40;100102.88;;;7.90;93.13
55757;BME280;41676;44.610;44.078;2023-04-07T22:14:41;100103.38;;;7.94;93.84
55757;BME280;41676;44.610;44.078;2023-04-07T22:19:44;100108.97;;;8.17;94.47
55757;BME280;41676;44.610;44.078;2023-04-07T22:24:45;100114.00;;;8.36;95.34
55757;BME280;41676;44.610;44.078;2023-04-07T22:29:46;100046.66;;;8.31;96.25
55757;BME280;41676;44.610;44.078;2023-04-07T22:34:47;100103.41;;;8.79;96.58
55757;BME280;41676;44.610;44.078;2023-04-07T22:39:48;100034.81;;;8.43;97.84
55757;BME280;41676;44.610;44.078;2023-04-07T22:44:48;100067.34;;;8.86;98.62
55757;BME280;41676;44.610;44.078;2023-04-07T22:49:49;99944.25;;;8.23;99.81
55757;BME280;41676;44.610;44.078;2023-04-07T22:54:50;100056.28;;;9.07;100.00
55757;BME280;41676;44.610;44.078;2023-04-07T22:59:51;100046.66;;;8.98;100.00
55757;BME280;41676;44.610;44.078;2023-04-07T23:04:52;100098.84;;;9.46;100.00
55757;BME280;41676;44.610;44.078;2023-04-07T23:09:53;100117.22;;;9.72;100.00
55757;BME280;41676;44.610;44.078;2023-04-07T23:14:54;100049.47;;;9.21;100.00
55757;BME280;41676;44.610;44.078;2023-04-07T23:19:54;100015.84;;;8.97;100.00
55757;BME280;41676;44.610;44.078;2023-04-07T23:24:55;100131.63;;;9.53;100.00
55757;BME280;41676;44.610;44.078;2023-04-07T23:29:56;100139.28;;;9.48;100.00
55757;BME280;41676;44.610;44.078;2023-04-07T23:34:57;99953.25;;;8.38;100.00
55757;BME280;41676;44.610;44.078;2023-04-07T23:39:58;100129.63;;;9.47;100.00
55757;BME280;41676;44.610;44.078;2023-04-07T23:44:59;100145.91;;;9.52;100.00
55757;BME280;41676;44.610;44.078;2023-04-07T23:50:00;100121.03;;;9.29;100.00
55757;BME280;41676;44.610;44.078;2023-04-07T23:55:00;100143.91;;;9.46;100.00
